Glendon, Canada
Current Conditions -  °F | °C
As of 3:00 PM on Friday 24 Oct 2014 (Local Time) from CYOD Reporting Station
Broken Clouds Broken Clouds  
Wind Chill: 41°   Ceiling: 4000
Heat Index: 46°   Visibility: 15mi
Dew Point: 32°   Wind: 13mph
Humidity: 57%   Direction: 280°W
Pressure: 29.78"   Gusts: 22mph
Location:  54.25°N, 111.15°W
Report Text: CYOD 242100Z 28011G19KT 15SM BKN040 BKN220 08/M00 A2978 RMKSC6CI0 SLP101
Loading
Personal Weather Stations






























Interactive Weather Map
Tropical Storm Tracking
New forecast layout! Learn more

10-Day Weather Forecast

Advertisements
Track Severe Weather on mobile